sensor_id;sensor_type;location;lat;lon;timestamp;temperature;humidity
52073;DHT22;38074;51.232;6.826;2023-04-06T00:05:08;23.20;30.80
52073;DHT22;38074;51.232;6.826;2023-04-06T00:12:23;23.20;30.90
52073;DHT22;38074;51.232;6.826;2023-04-06T00:19:39;23.20;30.90
52073;DHT22;38074;51.232;6.826;2023-04-06T00:26:55;23.20;31.00
52073;DHT22;38074;51.232;6.826;2023-04-06T00:34:10;23.20;31.00
52073;DHT22;38074;51.232;6.826;2023-04-06T00:41:26;23.20;31.10
52073;DHT22;38074;51.232;6.826;2023-04-06T00:48:41;23.20;31.10
52073;DHT22;38074;51.232;6.826;2023-04-06T00:55:57;23.20;31.10
52073;DHT22;38074;51.232;6.826;2023-04-06T01:03:12;23.20;31.10
52073;DHT22;38074;51.232;6.826;2023-04-06T01:10:28;23.20;31.20
52073;DHT22;38074;51.232;6.826;2023-04-06T01:17:44;23.20;31.30
52073;DHT22;38074;51.232;6.826;2023-04-06T01:25:00;23.20;31.20
52073;DHT22;38074;51.232;6.826;2023-04-06T01:32:15;23.20;31.20
52073;DHT22;38074;51.232;6.826;2023-04-06T01:39:31;23.20;31.30
52073;DHT22;38074;51.232;6.826;2023-04-06T01:46:46;23.20;31.30
52073;DHT22;38074;51.232;6.826;2023-04-06T01:54:02;23.20;31.40
52073;DHT22;38074;51.232;6.826;2023-04-06T02:01:17;23.20;31.50
52073;DHT22;38074;51.232;6.826;2023-04-06T02:08:33;23.20;31.40
52073;DHT22;38074;51.232;6.826;2023-04-06T02:15:48;23.20;31.50
52073;DHT22;38074;51.232;6.826;2023-04-06T02:23:04;23.20;31.50
52073;DHT22;38074;51.232;6.826;2023-04-06T02:30:19;23.20;31.50
52073;DHT22;38074;51.232;6.826;2023-04-06T02:37:35;23.10;31.30
52073;DHT22;38074;51.232;6.826;2023-04-06T02:44:50;23.10;31.40
52073;DHT22;38074;51.232;6.826;2023-04-06T02:52:06;23.10;31.30
52073;DHT22;38074;51.232;6.826;2023-04-06T02:59:21;23.10;31.50
52073;DHT22;38074;51.232;6.826;2023-04-06T03:06:37;23.10;31.40
52073;DHT22;38074;51.232;6.826;2023-04-06T03:13:53;23.10;31.40
52073;DHT22;38074;51.232;6.826;2023-04-06T03:21:08;23.10;31.40
52073;DHT22;38074;51.232;6.826;2023-04-06T03:28:24;23.10;31.40
52073;DHT22;38074;51.232;6.826;2023-04-06T03:35:39;23.10;31.50
52073;DHT22;38074;51.232;6.826;2023-04-06T03:42:55;23.10;31.40
52073;DHT22;38074;51.232;6.826;2023-04-06T03:50:10;23.10;31.40
52073;DHT22;38074;51.232;6.826;2023-04-06T03:57:26;23.10;31.60
52073;DHT22;38074;51.232;6.826;2023-04-06T04:04:42;23.10;31.30
52073;DHT22;38074;51.232;6.826;2023-04-06T04:11:58;23.10;31.40
52073;DHT22;38074;51.232;6.826;2023-04-06T04:19:13;23.10;31.40
52073;DHT22;38074;51.232;6.826;2023-04-06T04:26:29;23.10;31.40
52073;DHT22;38074;51.232;6.826;2023-04-06T04:33:44;23.10;31.50
52073;DHT22;38074;51.232;6.826;2023-04-06T04:41:00;23.10;31.40
52073;DHT22;38074;51.232;6.826;2023-04-06T04:48:15;23.10;31.50
52073;DHT22;38074;51.232;6.826;2023-04-06T04:55:31;23.10;31.40
52073;DHT22;38074;51.232;6.826;2023-04-06T05:02:47;23.10;31.40
52073;DHT22;38074;51.232;6.826;2023-04-06T05:10:02;23.00;31.40
52073;DHT22;38074;51.232;6.826;2023-04-06T05:17:18;23.00;31.40
52073;DHT22;38074;51.232;6.826;2023-04-06T05:24:34;23.10;31.30
52073;DHT22;38074;51.232;6.826;2023-04-06T05:31:51;23.10;31.30
52073;DHT22;38074;51.232;6.826;2023-04-06T05:39:06;23.10;31.40
52073;DHT22;38074;51.232;6.826;2023-04-06T05:46:23;23.00;31.30
52073;DHT22;38074;51.232;6.826;2023-04-06T05:53:38;23.00;31.20
52073;DHT22;38074;51.232;6.826;2023-04-06T06:00:58;23.00;31.20
52073;DHT22;38074;51.232;6.826;2023-04-06T06:08:13;23.00;31.10
52073;DHT22;38074;51.232;6.826;2023-04-06T06:15:29;23.10;31.40
52073;DHT22;38074;51.232;6.826;2023-04-06T06:22:44;23.10;31.50
52073;DHT22;38074;51.232;6.826;2023-04-06T06:30:00;23.10;31.70
52073;DHT22;38074;51.232;6.826;2023-04-06T06:37:15;23.10;32.20
52073;DHT22;38074;51.232;6.826;2023-04-06T06:44:31;23.20;32.60
52073;DHT22;38074;51.232;6.826;2023-04-06T06:51:46;23.20;33.10
52073;DHT22;38074;51.232;6.826;2023-04-06T06:59:02;23.30;33.80
52073;DHT22;38074;51.232;6.826;2023-04-06T07:06:17;23.30;35.20
52073;DHT22;38074;51.232;6.826;2023-04-06T07:13:33;23.40;35.50
52073;DHT22;38074;51.232;6.826;2023-04-06T07:20:48;23.40;35.70
52073;DHT22;38074;51.232;6.826;2023-04-06T07:28:04;23.50;35.00
52073;DHT22;38074;51.232;6.826;2023-04-06T07:35:20;23.50;34.90
52073;DHT22;38074;51.232;6.826;2023-04-06T07:42:35;23.50;34.80
52073;DHT22;38074;51.232;6.826;2023-04-06T07:49:51;23.50;34.80
52073;DHT22;38074;51.232;6.826;2023-04-06T07:57:06;23.60;34.90
52073;DHT22;38074;51.232;6.826;2023-04-06T08:04:22;23.60;34.90
52073;DHT22;38074;51.232;6.826;2023-04-06T08:11:37;23.60;34.90
52073;DHT22;38074;51.232;6.826;2023-04-06T08:18:53;23.60;34.90
52073;DHT22;38074;51.232;6.826;2023-04-06T08:26:09;23.60;34.90
52073;DHT22;38074;51.232;6.826;2023-04-06T08:33:25;23.70;35.00
52073;DHT22;38074;51.232;6.826;2023-04-06T08:40:40;23.60;35.00
52073;DHT22;38074;51.232;6.826;2023-04-06T08:47:57;23.60;35.00
52073;DHT22;38074;51.232;6.826;2023-04-06T08:55:16;23.70;35.00
52073;DHT22;38074;51.232;6.826;2023-04-06T09:02:32;23.70;35.00
52073;DHT22;38074;51.232;6.826;2023-04-06T09:09:48;23.60;34.90
52073;DHT22;38074;51.232;6.826;2023-04-06T09:17:04;23.60;34.90
52073;DHT22;38074;51.232;6.826;2023-04-06T09:24:20;23.60;34.90
52073;DHT22;38074;51.232;6.826;2023-04-06T09:31:41;23.60;34.80
52073;DHT22;38074;51.232;6.826;2023-04-06T09:38:59;23.70;34.80
52073;DHT22;38074;51.232;6.826;2023-04-06T09:46:15;23.60;34.70
52073;DHT22;38074;51.232;6.826;2023-04-06T09:53:34;23.60;34.70
52073;DHT22;38074;51.232;6.826;2023-04-06T10:01:03;23.60;34.50
52073;DHT22;38074;51.232;6.826;2023-04-06T10:08:24;23.60;34.50
52073;DHT22;38074;51.232;6.826;2023-04-06T10:15:43;23.60;34.40
52073;DHT22;38074;51.232;6.826;2023-04-06T10:23:19;23.50;34.20
52073;DHT22;38074;51.232;6.826;2023-04-06T10:30:42;23.60;34.20
52073;DHT22;38074;51.232;6.826;2023-04-06T10:38:05;23.50;34.00
52073;DHT22;38074;51.232;6.826;2023-04-06T10:45:25;23.60;34.00
52073;DHT22;38074;51.232;6.826;2023-04-06T10:52:41;23.50;33.60
52073;DHT22;38074;51.232;6.826;2023-04-06T10:59:56;23.60;33.90
52073;DHT22;38074;51.232;6.826;2023-04-06T11:07:25;23.70;33.80
52073;DHT22;38074;51.232;6.826;2023-04-06T11:14:53;23.70;33.40
52073;DHT22;38074;51.232;6.826;2023-04-06T11:22:08;23.60;33.20
52073;DHT22;38074;51.232;6.826;2023-04-06T11:29:26;23.50;33.20
52073;DHT22;38074;51.232;6.826;2023-04-06T11:36:43;23.50;33.30
52073;DHT22;38074;51.232;6.826;2023-04-06T11:44:01;23.50;33.30
52073;DHT22;38074;51.232;6.826;2023-04-06T11:51:24;23.40;33.20
52073;DHT22;38074;51.232;6.826;2023-04-06T11:58:40;23.50;33.30
52073;DHT22;38074;51.232;6.826;2023-04-06T12:05:55;23.60;33.40
52073;DHT22;38074;51.232;6.826;2023-04-06T12:13:11;23.60;33.20
52073;DHT22;38074;51.232;6.826;2023-04-06T12:20:26;23.70;33.20
52073;DHT22;38074;51.232;6.826;2023-04-06T12:27:42;23.70;33.20
52073;DHT22;38074;51.232;6.826;2023-04-06T12:34:58;23.70;33.20
52073;DHT22;38074;51.232;6.826;2023-04-06T12:42:13;23.80;33.20
52073;DHT22;38074;51.232;6.826;2023-04-06T12:49:29;23.80;33.10
52073;DHT22;38074;51.232;6.826;2023-04-06T12:56:44;23.80;33.10
52073;DHT22;38074;51.232;6.826;2023-04-06T13:04:00;23.80;33.00
52073;DHT22;38074;51.232;6.826;2023-04-06T13:11:16;23.80;33.00
52073;DHT22;38074;51.232;6.826;2023-04-06T13:18:32;23.80;32.90
52073;DHT22;38074;51.232;6.826;2023-04-06T13:26:03;23.70;32.70
52073;DHT22;38074;51.232;6.826;2023-04-06T13:33:19;23.60;32.50
52073;DHT22;38074;51.232;6.826;2023-04-06T13:40:34;23.50;32.60
52073;DHT22;38074;51.232;6.826;2023-04-06T13:47:50;23.50;32.50
52073;DHT22;38074;51.232;6.826;2023-04-06T13:55:06;23.50;32.60
52073;DHT22;38074;51.232;6.826;2023-04-06T14:02:22;23.50;32.50
52073;DHT22;38074;51.232;6.826;2023-04-06T14:09:42;23.40;32.50
52073;DHT22;38074;51.232;6.826;2023-04-06T14:16:57;23.40;32.60
52073;DHT22;38074;51.232;6.826;2023-04-06T14:24:13;23.40;32.50
52073;DHT22;38074;51.232;6.826;2023-04-06T14:31:29;23.40;32.60
52073;DHT22;38074;51.232;6.826;2023-04-06T14:38:45;23.40;32.60
52073;DHT22;38074;51.232;6.826;2023-04-06T14:46:02;23.40;32.60
52073;DHT22;38074;51.232;6.826;2023-04-06T14:53:17;23.40;32.60
52073;DHT22;38074;51.232;6.826;2023-04-06T15:00:33;23.40;32.70
52073;DHT22;38074;51.232;6.826;2023-04-06T15:07:48;23.40;32.80
52073;DHT22;38074;51.232;6.826;2023-04-06T15:15:05;23.30;32.70
52073;DHT22;38074;51.232;6.826;2023-04-06T15:22:20;23.40;32.90
52073;DHT22;38074;51.232;6.826;2023-04-06T15:29:36;23.40;33.20
52073;DHT22;38074;51.232;6.826;2023-04-06T15:36:51;23.40;33.30
52073;DHT22;38074;51.232;6.826;2023-04-06T15:44:08;23.50;33.30
52073;DHT22;38074;51.232;6.826;2023-04-06T15:51:23;23.60;33.30
52073;DHT22;38074;51.232;6.826;2023-04-06T15:58:39;23.60;33.40
52073;DHT22;38074;51.232;6.826;2023-04-06T16:05:55;23.50;33.40
52073;DHT22;38074;51.232;6.826;2023-04-06T16:13:11;23.60;33.50
52073;DHT22;38074;51.232;6.826;2023-04-06T16:20:27;23.60;33.70
52073;DHT22;38074;51.232;6.826;2023-04-06T16:27:42;23.60;33.80
52073;DHT22;38074;51.232;6.826;2023-04-06T16:34:58;23.60;33.90
52073;DHT22;38074;51.232;6.826;2023-04-06T16:42:13;23.70;34.00
52073;DHT22;38074;51.232;6.826;2023-04-06T16:49:31;23.80;34.10
52073;DHT22;38074;51.232;6.826;2023-04-06T16:56:47;23.80;34.30
52073;DHT22;38074;51.232;6.826;2023-04-06T17:04:02;23.80;34.50
52073;DHT22;38074;51.232;6.826;2023-04-06T17:11:18;23.80;34.70
52073;DHT22;38074;51.232;6.826;2023-04-06T17:18:33;23.90;35.00
52073;DHT22;38074;51.232;6.826;2023-04-06T17:25:49;23.90;35.20
52073;DHT22;38074;51.232;6.826;2023-04-06T17:33:05;24.00;35.50
52073;DHT22;38074;51.232;6.826;2023-04-06T17:40:21;24.00;35.70
52073;DHT22;38074;51.232;6.826;2023-04-06T17:47:36;24.00;35.90
52073;DHT22;38074;51.232;6.826;2023-04-06T17:54:52;24.00;36.10
52073;DHT22;38074;51.232;6.826;2023-04-06T18:02:08;24.10;36.40
52073;DHT22;38074;51.232;6.826;2023-04-06T18:09:23;24.10;36.60
52073;DHT22;38074;51.232;6.826;2023-04-06T18:16:39;24.00;36.70
52073;DHT22;38074;51.232;6.826;2023-04-06T18:23:55;24.00;36.90
52073;DHT22;38074;51.232;6.826;2023-04-06T18:31:10;24.10;37.20
52073;DHT22;38074;51.232;6.826;2023-04-06T18:38:26;24.10;37.30
52073;DHT22;38074;51.232;6.826;2023-04-06T18:45:41;24.10;37.50
52073;DHT22;38074;51.232;6.826;2023-04-06T18:52:57;24.10;37.60
52073;DHT22;38074;51.232;6.826;2023-04-06T19:00:14;24.00;37.60
52073;DHT22;38074;51.232;6.826;2023-04-06T19:07:30;24.00;37.70
52073;DHT22;38074;51.232;6.826;2023-04-06T19:14:46;23.90;37.70
52073;DHT22;38074;51.232;6.826;2023-04-06T19:22:05;23.90;37.80
52073;DHT22;38074;51.232;6.826;2023-04-06T19:29:22;23.90;38.00
52073;DHT22;38074;51.232;6.826;2023-04-06T19:36:37;23.90;38.10
52073;DHT22;38074;51.232;6.826;2023-04-06T19:43:53;23.80;38.20
52073;DHT22;38074;51.232;6.826;2023-04-06T19:51:08;23.70;38.20
52073;DHT22;38074;51.232;6.826;2023-04-06T19:58:24;23.70;38.20
52073;DHT22;38074;51.232;6.826;2023-04-06T20:05:39;23.70;38.20
52073;DHT22;38074;51.232;6.826;2023-04-06T20:12:56;23.70;38.20
52073;DHT22;38074;51.232;6.826;2023-04-06T20:20:12;23.60;38.20
52073;DHT22;38074;51.232;6.826;2023-04-06T20:27:28;23.60;38.10
52073;DHT22;38074;51.232;6.826;2023-04-06T20:34:43;23.60;38.10
52073;DHT22;38074;51.232;6.826;2023-04-06T20:41:58;23.60;38.10
52073;DHT22;38074;51.232;6.826;2023-04-06T20:49:15;23.50;38.00
52073;DHT22;38074;51.232;6.826;2023-04-06T20:56:32;23.50;38.00
52073;DHT22;38074;51.232;6.826;2023-04-06T21:03:48;23.50;37.90
52073;DHT22;38074;51.232;6.826;2023-04-06T21:11:04;23.50;37.90
52073;DHT22;38074;51.232;6.826;2023-04-06T21:18:20;23.50;37.90
52073;DHT22;38074;51.232;6.826;2023-04-06T21:25:36;23.50;37.90
52073;DHT22;38074;51.232;6.826;2023-04-06T21:32:52;23.50;37.80
52073;DHT22;38074;51.232;6.826;2023-04-06T21:40:07;23.50;37.80
52073;DHT22;38074;51.232;6.826;2023-04-06T21:47:23;23.50;37.80
52073;DHT22;38074;51.232;6.826;2023-04-06T21:54:39;23.50;37.80
52073;DHT22;38074;51.232;6.826;2023-04-06T22:01:54;23.50;37.80
52073;DHT22;38074;51.232;6.826;2023-04-06T22:09:10;23.50;37.70
52073;DHT22;38074;51.232;6.826;2023-04-06T22:16:26;23.50;37.70
52073;DHT22;38074;51.232;6.826;2023-04-06T22:23:42;23.40;37.70
52073;DHT22;38074;51.232;6.826;2023-04-06T22:30:57;23.40;37.90
52073;DHT22;38074;51.232;6.826;2023-04-06T22:38:13;23.40;38.10
52073;DHT22;38074;51.232;6.826;2023-04-06T22:45:28;23.40;38.20
52073;DHT22;38074;51.232;6.826;2023-04-06T22:52:44;23.40;38.30
52073;DHT22;38074;51.232;6.826;2023-04-06T22:59:59;23.40;38.40
52073;DHT22;38074;51.232;6.826;2023-04-06T23:07:15;23.40;38.50
52073;DHT22;38074;51.232;6.826;2023-04-06T23:14:30;23.40;38.60
52073;DHT22;38074;51.232;6.826;2023-04-06T23:21:46;23.40;38.60
52073;DHT22;38074;51.232;6.826;2023-04-06T23:29:02;23.40;38.70
52073;DHT22;38074;51.232;6.826;2023-04-06T23:36:17;23.40;38.70
52073;DHT22;38074;51.232;6.826;2023-04-06T23:43:33;23.40;38.70
52073;DHT22;38074;51.232;6.826;2023-04-06T23:50:48;23.40;38.80
52073;DHT22;38074;51.232;6.826;2023-04-06T23:58:04;23.40;38.80
